Camden, IN (46917)

10:52 PM EDT on September 20, 2014 (GMT -0400)
Carroll Jr/Sr High School | Change Station
CLOSE
Current Station
Personal Weather Station
Location: Flora, IN
Elevation: 715 ft
Nearby Weather Stations

Elev 715 ft 40.55 °N, 86.48 °W | Updated 6 seconds ago

Overcast
Overcast
67.0 °F
Feels Like 67.0 °F
N
3.2
Wind Variable Wind from South
Gusts 3.4 mph

Today
High -- | Low -- °F
--% Chance of Precip.
Yesterday
High -- | Low -- °F
Precip. -- in
7:31 AM 7:46 PM
Waning Crescent, 9% visible
Pressure 29.87 in
Visibility 10.0 miles
Clouds Scattered Clouds 3300 ft
Scattered Clouds 5000 ft
Mostly Cloudy 7000 ft
Dew Point 62 °F
Humidity 85%
Rainfall 1.18 in
Snow Depth Not available.
UV 0 out of 12
Pollen 6.40 out of 12
Air Quality Not available.
Flu Activity Not available.
METAR KGGP 210215Z AUTO 20008KT 10SM SCT033 SCT050 BKN070 18/17 A2987 RMK AO2

More Conditions Fewer Conditions

Pressure 29.87 in
Visibility 10.0 miles
Clouds Scattered Clouds 3300 ft
Scattered Clouds 5000 ft
Mostly Cloudy 7000 ft
Dew Point 62 °F
Humidity 85%
Rainfall 1.18 in
Snow Depth Not available.
UV 0 out of 12
Pollen 6.40 out of 12
Air Quality Not available.
Flu Activity Not available.
METAR KGGP 210215Z AUTO 20008KT 10SM SCT033 SCT050 BKN070 18/17 A2987 RMK AO2

More Conditions Fewer Conditions

10-Day Weather Forecast

Almanac

Astronomy

Sep. 20, 2014 Rise Set
Actual Time 7:31 AM EDT 7:46 PM EDT
Civil Twilight 7:04 AM EDT 8:13 PM EDT
Nautical Twilight 6:32 AM EDT 8:45 PM EDT
Astronomical Twilight 5:59 AM EDT 9:18 PM EDT
Moon 4:09 AM EDT (9/20) 5:50 PM EDT (9/20)
Length of Visible Light 13h 09m
Length of Day
12h 14m
Tomorrow will be 2m 40s shorter.
Waning Crescent, 9% of the Moon is Illuminated
Today
Waning Crescent
Sep 24
New
Oct 1
First Quarter
Oct 8
Full
Oct 15
Last Quarter

Today's Extremes

State Highs State Lows

Community

WunderPhotos

Upload Photos

1,755,066 photos uploaded!

WunderBlogs® & News

Nearby

Snow Depth

Station Depth Elevation
No new snow has been reported.

Earthquake Activity

City Distance Mag. Time & Date
No recent earthquake activity has been reported nearby.
Minimum magnitude displayed is 2.5.

Coastal Water Temperatures

Place Temperature
No Stations Reporting

Nearby Weather Stations